Terminal Aerodrome Forecast
Issued by NWS

Home | Current Version | Previous Version | Graphics & Text | Print | Product List | Glossary On
Versions: 1 2 3 4 5 6 7 8 9 10 11 12 13 14 15 16 17 18 19 20 21 22 23 24
455
FTUS43 KDVN 262322
TAFBRL
TAF
KBRL 262322Z 2700/2724 23007KT P6SM BKN060
     FM270400 VRB03KT P6SM SCT100
     FM271000 VRB03KT 3SM BR SKC
      TEMPO 2711/2715 1SM BR BKN006
     FM271600 17008KT P6SM SCT025=

USA.gov is the U.S. government's official web portal to all federal, state and local government web resources and services.